sensor_id;sensor_type;location;lat;lon;timestamp;P1;durP1;ratioP1;P2;durP2;ratioP2
68614;SDS011;55593;51.994;5.882;2022-12-18T00:00:31;74.15;;;34.42;;
68614;SDS011;55593;51.994;5.882;2022-12-18T00:03:00;73.10;;;33.92;;
68614;SDS011;55593;51.994;5.882;2022-12-18T00:05:30;70.07;;;34.38;;
68614;SDS011;55593;51.994;5.882;2022-12-18T00:08:01;76.95;;;32.45;;
68614;SDS011;55593;51.994;5.882;2022-12-18T00:10:31;72.95;;;32.42;;
68614;SDS011;55593;51.994;5.882;2022-12-18T00:13:00;72.78;;;33.00;;
68614;SDS011;55593;51.994;5.882;2022-12-18T00:15:29;67.75;;;33.40;;
68614;SDS011;55593;51.994;5.882;2022-12-18T00:17:58;72.25;;;33.38;;
68614;SDS011;55593;51.994;5.882;2022-12-18T00:20:27;72.18;;;32.05;;
68614;SDS011;55593;51.994;5.882;2022-12-18T00:22:56;67.15;;;30.73;;
68614;SDS011;55593;51.994;5.882;2022-12-18T00:25:28;67.85;;;33.72;;
68614;SDS011;55593;51.994;5.882;2022-12-18T00:27:57;66.32;;;32.72;;
68614;SDS011;55593;51.994;5.882;2022-12-18T00:30:26;65.20;;;33.55;;
68614;SDS011;55593;51.994;5.882;2022-12-18T00:32:56;67.15;;;31.02;;
68614;SDS011;55593;51.994;5.882;2022-12-18T00:35:26;61.25;;;30.60;;
68614;SDS011;55593;51.994;5.882;2022-12-18T00:37:55;68.25;;;32.50;;
68614;SDS011;55593;51.994;5.882;2022-12-18T00:40:24;63.80;;;30.70;;
68614;SDS011;55593;51.994;5.882;2022-12-18T00:42:56;60.67;;;31.65;;
68614;SDS011;55593;51.994;5.882;2022-12-18T00:45:24;58.75;;;31.00;;
68614;SDS011;55593;51.994;5.882;2022-12-18T00:47:54;58.03;;;29.30;;
68614;SDS011;55593;51.994;5.882;2022-12-18T00:50:24;64.93;;;32.67;;
68614;SDS011;55593;51.994;5.882;2022-12-18T00:52:53;58.70;;;30.13;;
68614;SDS011;55593;51.994;5.882;2022-12-18T00:55:23;62.03;;;30.98;;
68614;SDS011;55593;51.994;5.882;2022-12-18T00:57:52;61.55;;;31.55;;
68614;SDS011;55593;51.994;5.882;2022-12-18T01:00:24;61.75;;;29.90;;
68614;SDS011;55593;51.994;5.882;2022-12-18T01:02:53;58.22;;;29.73;;
68614;SDS011;55593;51.994;5.882;2022-12-18T01:05:24;54.28;;;28.83;;
68614;SDS011;55593;51.994;5.882;2022-12-18T01:07:54;56.38;;;29.63;;
68614;SDS011;55593;51.994;5.882;2022-12-18T01:10:24;50.45;;;27.70;;
68614;SDS011;55593;51.994;5.882;2022-12-18T01:12:57;57.17;;;28.15;;
68614;SDS011;55593;51.994;5.882;2022-12-18T01:15:29;53.90;;;27.98;;
68614;SDS011;55593;51.994;5.882;2022-12-18T01:17:58;52.95;;;27.20;;
68614;SDS011;55593;51.994;5.882;2022-12-18T01:20:27;52.03;;;28.10;;
68614;SDS011;55593;51.994;5.882;2022-12-18T01:22:56;53.00;;;26.73;;
68614;SDS011;55593;51.994;5.882;2022-12-18T01:25:26;50.72;;;26.77;;
68614;SDS011;55593;51.994;5.882;2022-12-18T01:27:55;54.08;;;28.75;;
68614;SDS011;55593;51.994;5.882;2022-12-18T01:30:24;52.03;;;27.40;;
68614;SDS011;55593;51.994;5.882;2022-12-18T01:32:56;56.42;;;27.73;;
68614;SDS011;55593;51.994;5.882;2022-12-18T01:35:25;50.95;;;26.63;;
68614;SDS011;55593;51.994;5.882;2022-12-18T01:37:54;54.53;;;28.25;;
68614;SDS011;55593;51.994;5.882;2022-12-18T01:40:24;54.92;;;27.50;;
68614;SDS011;55593;51.994;5.882;2022-12-18T01:42:53;46.47;;;24.55;;
68614;SDS011;55593;51.994;5.882;2022-12-18T01:45:26;49.55;;;26.77;;
68614;SDS011;55593;51.994;5.882;2022-12-18T01:48:01;50.53;;;25.63;;
68614;SDS011;55593;51.994;5.882;2022-12-18T01:50:31;49.88;;;25.48;;
68614;SDS011;55593;51.994;5.882;2022-12-18T01:53:03;50.28;;;26.98;;
68614;SDS011;55593;51.994;5.882;2022-12-18T01:55:36;56.58;;;27.08;;
68614;SDS011;55593;51.994;5.882;2022-12-18T01:58:07;55.72;;;27.23;;
68614;SDS011;55593;51.994;5.882;2022-12-18T02:00:36;53.58;;;25.92;;
68614;SDS011;55593;51.994;5.882;2022-12-18T02:03:08;44.15;;;25.30;;
68614;SDS011;55593;51.994;5.882;2022-12-18T02:05:40;47.92;;;26.65;;
68614;SDS011;55593;51.994;5.882;2022-12-18T02:08:16;44.60;;;24.08;;
68614;SDS011;55593;51.994;5.882;2022-12-18T02:10:48;43.75;;;23.60;;
68614;SDS011;55593;51.994;5.882;2022-12-18T02:13:25;47.88;;;24.98;;
68614;SDS011;55593;51.994;5.882;2022-12-18T02:16:00;46.35;;;23.85;;
68614;SDS011;55593;51.994;5.882;2022-12-18T02:18:37;46.08;;;25.73;;
68614;SDS011;55593;51.994;5.882;2022-12-18T02:21:12;48.00;;;26.88;;
68614;SDS011;55593;51.994;5.882;2022-12-18T02:23:50;47.20;;;24.83;;
68614;SDS011;55593;51.994;5.882;2022-12-18T02:26:29;42.78;;;23.85;;
68614;SDS011;55593;51.994;5.882;2022-12-18T02:29:00;47.05;;;24.42;;
68614;SDS011;55593;51.994;5.882;2022-12-18T02:31:35;44.60;;;23.45;;
68614;SDS011;55593;51.994;5.882;2022-12-18T02:34:06;41.03;;;22.40;;
68614;SDS011;55593;51.994;5.882;2022-12-18T02:36:38;39.15;;;23.30;;
68614;SDS011;55593;51.994;5.882;2022-12-18T02:39:10;43.25;;;22.77;;
68614;SDS011;55593;51.994;5.882;2022-12-18T02:41:52;38.70;;;23.15;;
68614;SDS011;55593;51.994;5.882;2022-12-18T02:44:23;40.15;;;22.13;;
68614;SDS011;55593;51.994;5.882;2022-12-18T02:46:53;45.33;;;22.85;;
68614;SDS011;55593;51.994;5.882;2022-12-18T02:49:26;40.65;;;20.80;;
68614;SDS011;55593;51.994;5.882;2022-12-18T02:52:01;41.08;;;20.45;;
68614;SDS011;55593;51.994;5.882;2022-12-18T02:54:37;39.67;;;23.13;;
68614;SDS011;55593;51.994;5.882;2022-12-18T02:57:16;39.15;;;20.85;;
68614;SDS011;55593;51.994;5.882;2022-12-18T02:59:50;47.33;;;22.90;;
68614;SDS011;55593;51.994;5.882;2022-12-18T03:02:26;42.58;;;21.58;;
68614;SDS011;55593;51.994;5.882;2022-12-18T03:04:59;43.75;;;21.73;;
68614;SDS011;55593;51.994;5.882;2022-12-18T03:07:34;44.22;;;22.38;;
68614;SDS011;55593;51.994;5.882;2022-12-18T03:10:09;46.55;;;23.70;;
68614;SDS011;55593;51.994;5.882;2022-12-18T03:12:46;43.58;;;22.33;;
68614;SDS011;55593;51.994;5.882;2022-12-18T03:15:17;47.80;;;23.80;;
68614;SDS011;55593;51.994;5.882;2022-12-18T03:17:55;44.55;;;23.48;;
68614;SDS011;55593;51.994;5.882;2022-12-18T03:20:29;42.75;;;22.48;;
68614;SDS011;55593;51.994;5.882;2022-12-18T03:23:01;43.53;;;22.60;;
68614;SDS011;55593;51.994;5.882;2022-12-18T03:25:33;46.20;;;23.63;;
68614;SDS011;55593;51.994;5.882;2022-12-18T03:28:06;42.88;;;22.83;;
68614;SDS011;55593;51.994;5.882;2022-12-18T03:30:38;39.17;;;21.30;;
68614;SDS011;55593;51.994;5.882;2022-12-18T03:33:10;41.90;;;22.92;;
68614;SDS011;55593;51.994;5.882;2022-12-18T03:35:45;46.08;;;22.67;;
68614;SDS011;55593;51.994;5.882;2022-12-18T03:38:17;38.85;;;20.92;;
68614;SDS011;55593;51.994;5.882;2022-12-18T03:40:52;44.40;;;21.30;;
68614;SDS011;55593;51.994;5.882;2022-12-18T03:43:30;47.42;;;22.13;;
68614;SDS011;55593;51.994;5.882;2022-12-18T03:46:06;35.35;;;20.40;;
68614;SDS011;55593;51.994;5.882;2022-12-18T03:48:38;39.25;;;20.58;;
68614;SDS011;55593;51.994;5.882;2022-12-18T03:51:18;37.53;;;21.58;;
68614;SDS011;55593;51.994;5.882;2022-12-18T03:53:54;39.50;;;19.02;;
68614;SDS011;55593;51.994;5.882;2022-12-18T03:56:31;38.88;;;19.77;;
68614;SDS011;55593;51.994;5.882;2022-12-18T03:59:07;37.05;;;20.73;;
68614;SDS011;55593;51.994;5.882;2022-12-18T04:01:39;40.78;;;18.75;;
68614;SDS011;55593;51.994;5.882;2022-12-18T04:04:11;34.42;;;19.83;;
68614;SDS011;55593;51.994;5.882;2022-12-18T04:06:43;33.88;;;18.45;;
68614;SDS011;55593;51.994;5.882;2022-12-18T04:09:13;36.15;;;19.48;;
68614;SDS011;55593;51.994;5.882;2022-12-18T04:11:46;36.78;;;18.42;;
68614;SDS011;55593;51.994;5.882;2022-12-18T04:14:18;34.72;;;19.05;;
68614;SDS011;55593;51.994;5.882;2022-12-18T04:16:52;34.90;;;18.02;;
68614;SDS011;55593;51.994;5.882;2022-12-18T04:19:27;37.20;;;19.77;;
68614;SDS011;55593;51.994;5.882;2022-12-18T04:21:58;37.22;;;19.23;;
68614;SDS011;55593;51.994;5.882;2022-12-18T04:24:31;40.78;;;20.40;;
68614;SDS011;55593;51.994;5.882;2022-12-18T04:27:13;31.35;;;18.13;;
68614;SDS011;55593;51.994;5.882;2022-12-18T04:29:49;35.25;;;17.52;;
68614;SDS011;55593;51.994;5.882;2022-12-18T04:32:19;31.75;;;17.17;;
68614;SDS011;55593;51.994;5.882;2022-12-18T04:34:48;29.67;;;16.80;;
68614;SDS011;55593;51.994;5.882;2022-12-18T04:37:17;37.95;;;18.58;;
68614;SDS011;55593;51.994;5.882;2022-12-18T04:39:49;33.40;;;17.15;;
68614;SDS011;55593;51.994;5.882;2022-12-18T04:44:57;34.58;;;18.55;;
68614;SDS011;55593;51.994;5.882;2022-12-18T04:47:26;29.48;;;16.70;;
68614;SDS011;55593;51.994;5.882;2022-12-18T04:49:55;33.03;;;16.65;;
68614;SDS011;55593;51.994;5.882;2022-12-18T04:52:24;29.25;;;15.93;;
68614;SDS011;55593;51.994;5.882;2022-12-18T04:54:53;31.73;;;17.90;;
68614;SDS011;55593;51.994;5.882;2022-12-18T04:57:22;24.63;;;15.05;;
68614;SDS011;55593;51.994;5.882;2022-12-18T04:59:52;27.80;;;15.93;;
68614;SDS011;55593;51.994;5.882;2022-12-18T05:02:23;31.60;;;15.82;;
68614;SDS011;55593;51.994;5.882;2022-12-18T05:04:52;28.10;;;15.25;;
68614;SDS011;55593;51.994;5.882;2022-12-18T05:07:21;27.85;;;16.17;;
68614;SDS011;55593;51.994;5.882;2022-12-18T05:09:51;26.50;;;14.50;;
68614;SDS011;55593;51.994;5.882;2022-12-18T05:12:20;26.83;;;15.45;;
68614;SDS011;55593;51.994;5.882;2022-12-18T05:14:49;29.05;;;15.45;;
68614;SDS011;55593;51.994;5.882;2022-12-18T05:17:18;26.45;;;14.98;;
68614;SDS011;55593;51.994;5.882;2022-12-18T05:19:50;29.48;;;16.30;;
68614;SDS011;55593;51.994;5.882;2022-12-18T05:22:19;28.02;;;16.90;;
68614;SDS011;55593;51.994;5.882;2022-12-18T05:24:48;26.85;;;15.38;;
68614;SDS011;55593;51.994;5.882;2022-12-18T05:27:17;29.38;;;15.50;;
68614;SDS011;55593;51.994;5.882;2022-12-18T05:29:47;26.95;;;14.75;;
68614;SDS011;55593;51.994;5.882;2022-12-18T05:32:16;27.20;;;14.77;;
68614;SDS011;55593;51.994;5.882;2022-12-18T05:34:45;26.10;;;15.07;;
68614;SDS011;55593;51.994;5.882;2022-12-18T05:37:17;28.02;;;15.90;;
68614;SDS011;55593;51.994;5.882;2022-12-18T05:39:46;29.85;;;15.68;;
68614;SDS011;55593;51.994;5.882;2022-12-18T05:42:15;30.33;;;16.42;;
68614;SDS011;55593;51.994;5.882;2022-12-18T05:44:44;24.13;;;14.43;;
68614;SDS011;55593;51.994;5.882;2022-12-18T05:47:14;29.05;;;14.32;;
68614;SDS011;55593;51.994;5.882;2022-12-18T05:49:43;29.27;;;14.13;;
68614;SDS011;55593;51.994;5.882;2022-12-18T05:52:12;31.27;;;14.88;;
68614;SDS011;55593;51.994;5.882;2022-12-18T05:54:44;26.40;;;14.35;;
68614;SDS011;55593;51.994;5.882;2022-12-18T05:57:13;26.77;;;15.63;;
68614;SDS011;55593;51.994;5.882;2022-12-18T05:59:42;26.90;;;15.15;;
68614;SDS011;55593;51.994;5.882;2022-12-18T06:02:11;26.70;;;14.02;;
68614;SDS011;55593;51.994;5.882;2022-12-18T06:04:40;26.17;;;14.38;;
68614;SDS011;55593;51.994;5.882;2022-12-18T06:07:09;25.33;;;14.60;;
68614;SDS011;55593;51.994;5.882;2022-12-18T06:09:38;23.95;;;13.60;;
68614;SDS011;55593;51.994;5.882;2022-12-18T06:12:10;27.15;;;14.73;;
68614;SDS011;55593;51.994;5.882;2022-12-18T06:14:39;23.67;;;15.43;;
68614;SDS011;55593;51.994;5.882;2022-12-18T06:17:08;28.30;;;15.35;;
68614;SDS011;55593;51.994;5.882;2022-12-18T06:19:37;25.13;;;13.82;;
68614;SDS011;55593;51.994;5.882;2022-12-18T06:22:07;22.40;;;14.07;;
68614;SDS011;55593;51.994;5.882;2022-12-18T06:24:36;27.48;;;15.20;;
68614;SDS011;55593;51.994;5.882;2022-12-18T06:27:05;24.25;;;14.77;;
68614;SDS011;55593;51.994;5.882;2022-12-18T06:29:37;25.67;;;15.52;;
68614;SDS011;55593;51.994;5.882;2022-12-18T06:32:06;28.42;;;15.18;;
68614;SDS011;55593;51.994;5.882;2022-12-18T06:34:36;25.83;;;14.60;;
68614;SDS011;55593;51.994;5.882;2022-12-18T06:37:06;23.70;;;13.77;;
68614;SDS011;55593;51.994;5.882;2022-12-18T06:39:35;24.23;;;14.27;;
68614;SDS011;55593;51.994;5.882;2022-12-18T06:42:04;25.73;;;15.23;;
68614;SDS011;55593;51.994;5.882;2022-12-18T06:44:33;26.27;;;15.00;;
68614;SDS011;55593;51.994;5.882;2022-12-18T06:47:05;26.30;;;14.95;;
68614;SDS011;55593;51.994;5.882;2022-12-18T06:49:34;26.35;;;13.88;;
68614;SDS011;55593;51.994;5.882;2022-12-18T06:52:04;26.08;;;14.88;;
68614;SDS011;55593;51.994;5.882;2022-12-18T06:54:33;23.05;;;13.55;;
68614;SDS011;55593;51.994;5.882;2022-12-18T06:57:05;24.33;;;14.70;;
68614;SDS011;55593;51.994;5.882;2022-12-18T06:59:37;27.30;;;14.63;;
68614;SDS011;55593;51.994;5.882;2022-12-18T07:02:09;23.67;;;15.13;;
68614;SDS011;55593;51.994;5.882;2022-12-18T07:04:39;23.98;;;14.90;;
68614;SDS011;55593;51.994;5.882;2022-12-18T07:07:09;24.98;;;14.68;;
68614;SDS011;55593;51.994;5.882;2022-12-18T07:09:38;23.25;;;14.90;;
68614;SDS011;55593;51.994;5.882;2022-12-18T07:12:07;29.23;;;14.70;;
68614;SDS011;55593;51.994;5.882;2022-12-18T07:14:39;23.92;;;13.43;;
68614;SDS011;55593;51.994;5.882;2022-12-18T07:17:08;26.13;;;15.15;;
68614;SDS011;55593;51.994;5.882;2022-12-18T07:19:37;23.63;;;13.98;;
68614;SDS011;55593;51.994;5.882;2022-12-18T07:22:06;22.73;;;13.15;;
68614;SDS011;55593;51.994;5.882;2022-12-18T07:24:36;28.23;;;14.95;;
68614;SDS011;55593;51.994;5.882;2022-12-18T07:27:05;26.40;;;14.57;;
68614;SDS011;55593;51.994;5.882;2022-12-18T07:29:35;25.98;;;14.00;;
68614;SDS011;55593;51.994;5.882;2022-12-18T07:32:07;24.58;;;13.82;;
68614;SDS011;55593;51.994;5.882;2022-12-18T07:34:36;21.27;;;12.82;;
68614;SDS011;55593;51.994;5.882;2022-12-18T07:37:05;26.85;;;14.02;;
68614;SDS011;55593;51.994;5.882;2022-12-18T07:39:34;21.35;;;13.40;;
68614;SDS011;55593;51.994;5.882;2022-12-18T07:42:03;23.02;;;13.27;;
68614;SDS011;55593;51.994;5.882;2022-12-18T07:44:45;21.80;;;12.93;;
68614;SDS011;55593;51.994;5.882;2022-12-18T07:47:17;22.77;;;13.50;;
68614;SDS011;55593;51.994;5.882;2022-12-18T07:49:46;22.48;;;12.63;;
68614;SDS011;55593;51.994;5.882;2022-12-18T07:52:15;20.50;;;12.43;;
68614;SDS011;55593;51.994;5.882;2022-12-18T07:54:45;21.15;;;12.18;;
68614;SDS011;55593;51.994;5.882;2022-12-18T07:57:15;21.65;;;12.38;;
68614;SDS011;55593;51.994;5.882;2022-12-18T07:59:44;24.27;;;13.07;;
68614;SDS011;55593;51.994;5.882;2022-12-18T08:02:13;23.95;;;13.25;;
68614;SDS011;55593;51.994;5.882;2022-12-18T08:04:45;22.73;;;11.80;;
68614;SDS011;55593;51.994;5.882;2022-12-18T08:07:15;20.25;;;11.55;;
68614;SDS011;55593;51.994;5.882;2022-12-18T08:09:44;41.90;;;13.18;;
68614;SDS011;55593;51.994;5.882;2022-12-18T08:12:13;20.42;;;12.25;;
68614;SDS011;55593;51.994;5.882;2022-12-18T08:14:42;23.10;;;13.00;;
68614;SDS011;55593;51.994;5.882;2022-12-18T08:17:11;18.60;;;11.50;;
68614;SDS011;55593;51.994;5.882;2022-12-18T08:19:43;18.92;;;11.60;;
68614;SDS011;55593;51.994;5.882;2022-12-18T08:22:12;19.98;;;11.75;;
68614;SDS011;55593;51.994;5.882;2022-12-18T08:24:42;20.63;;;11.82;;
68614;SDS011;55593;51.994;5.882;2022-12-18T08:27:11;22.17;;;12.55;;
68614;SDS011;55593;51.994;5.882;2022-12-18T08:29:40;19.50;;;11.82;;
68614;SDS011;55593;51.994;5.882;2022-12-18T08:32:09;23.38;;;12.90;;
68614;SDS011;55593;51.994;5.882;2022-12-18T08:34:39;22.67;;;11.90;;
68614;SDS011;55593;51.994;5.882;2022-12-18T08:37:11;23.30;;;12.05;;
68614;SDS011;55593;51.994;5.882;2022-12-18T08:39:40;23.40;;;11.75;;
68614;SDS011;55593;51.994;5.882;2022-12-18T08:42:09;20.15;;;11.38;;
68614;SDS011;55593;51.994;5.882;2022-12-18T08:44:51;23.30;;;12.27;;
68614;SDS011;55593;51.994;5.882;2022-12-18T08:47:20;17.65;;;10.93;;
68614;SDS011;55593;51.994;5.882;2022-12-18T08:49:49;18.02;;;10.25;;
68614;SDS011;55593;51.994;5.882;2022-12-18T08:52:21;22.02;;;12.90;;
68614;SDS011;55593;51.994;5.882;2022-12-18T08:54:50;19.00;;;10.18;;
68614;SDS011;55593;51.994;5.882;2022-12-18T08:57:19;25.63;;;12.35;;
68614;SDS011;55593;51.994;5.882;2022-12-18T08:59:48;21.50;;;11.55;;
68614;SDS011;55593;51.994;5.882;2022-12-18T09:02:18;19.55;;;11.20;;
68614;SDS011;55593;51.994;5.882;2022-12-18T09:04:47;21.23;;;11.40;;
68614;SDS011;55593;51.994;5.882;2022-12-18T09:07:16;19.50;;;11.90;;
68614;SDS011;55593;51.994;5.882;2022-12-18T09:09:48;17.08;;;10.75;;
68614;SDS011;55593;51.994;5.882;2022-12-18T09:12:17;19.30;;;10.77;;
68614;SDS011;55593;51.994;5.882;2022-12-18T09:14:46;18.60;;;10.48;;
68614;SDS011;55593;51.994;5.882;2022-12-18T09:17:15;19.17;;;11.07;;
68614;SDS011;55593;51.994;5.882;2022-12-18T09:19:44;17.58;;;9.82;;
68614;SDS011;55593;51.994;5.882;2022-12-18T09:22:13;19.23;;;10.85;;
68614;SDS011;55593;51.994;5.882;2022-12-18T09:24:42;17.00;;;9.77;;
68614;SDS011;55593;51.994;5.882;2022-12-18T09:27:14;16.55;;;9.95;;
68614;SDS011;55593;51.994;5.882;2022-12-18T09:29:43;19.73;;;10.02;;
68614;SDS011;55593;51.994;5.882;2022-12-18T09:32:12;17.52;;;9.50;;
68614;SDS011;55593;51.994;5.882;2022-12-18T09:34:42;18.25;;;10.57;;
68614;SDS011;55593;51.994;5.882;2022-12-18T09:37:11;18.52;;;10.38;;
68614;SDS011;55593;51.994;5.882;2022-12-18T09:39:40;19.58;;;10.60;;
68614;SDS011;55593;51.994;5.882;2022-12-18T09:42:09;18.98;;;11.25;;
68614;SDS011;55593;51.994;5.882;2022-12-18T09:44:48;23.75;;;13.32;;
68614;SDS011;55593;51.994;5.882;2022-12-18T09:47:19;29.52;;;12.60;;
68614;SDS011;55593;51.994;5.882;2022-12-18T09:49:52;20.60;;;11.43;;
68614;SDS011;55593;51.994;5.882;2022-12-18T09:52:23;19.13;;;10.85;;
68614;SDS011;55593;51.994;5.882;2022-12-18T09:54:56;20.85;;;10.63;;
68614;SDS011;55593;51.994;5.882;2022-12-18T09:57:31;16.75;;;10.18;;
68614;SDS011;55593;51.994;5.882;2022-12-18T10:00:03;16.85;;;10.05;;
68614;SDS011;55593;51.994;5.882;2022-12-18T10:02:37;18.92;;;10.45;;
68614;SDS011;55593;51.994;5.882;2022-12-18T10:05:10;42.13;;;11.88;;
68614;SDS011;55593;51.994;5.882;2022-12-18T10:10:32;18.25;;;10.20;;
68614;SDS011;55593;51.994;5.882;2022-12-18T10:13:11;18.77;;;10.15;;
68614;SDS011;55593;51.994;5.882;2022-12-18T10:15:48;25.50;;;10.18;;
68614;SDS011;55593;51.994;5.882;2022-12-18T10:18:23;16.27;;;10.02;;
68614;SDS011;55593;51.994;5.882;2022-12-18T10:23:28;16.90;;;9.65;;
68614;SDS011;55593;51.994;5.882;2022-12-18T10:26:02;16.02;;;9.18;;
68614;SDS011;55593;51.994;5.882;2022-12-18T10:28:37;17.90;;;9.70;;
68614;SDS011;55593;51.994;5.882;2022-12-18T10:31:10;18.80;;;10.80;;
68614;SDS011;55593;51.994;5.882;2022-12-18T10:33:42;17.23;;;10.25;;
68614;SDS011;55593;51.994;5.882;2022-12-18T10:36:12;19.63;;;10.65;;
68614;SDS011;55593;51.994;5.882;2022-12-18T10:38:42;22.23;;;11.32;;
68614;SDS011;55593;51.994;5.882;2022-12-18T10:41:23;20.83;;;10.95;;
68614;SDS011;55593;51.994;5.882;2022-12-18T10:46:43;19.40;;;12.50;;
68614;SDS011;55593;51.994;5.882;2022-12-18T10:49:20;20.10;;;11.27;;
68614;SDS011;55593;51.994;5.882;2022-12-18T10:51:51;18.20;;;11.10;;
68614;SDS011;55593;51.994;5.882;2022-12-18T10:54:21;22.55;;;11.48;;
68614;SDS011;55593;51.994;5.882;2022-12-18T10:56:51;20.13;;;10.95;;
68614;SDS011;55593;51.994;5.882;2022-12-18T10:59:22;20.27;;;11.05;;
68614;SDS011;55593;51.994;5.882;2022-12-18T11:01:52;17.67;;;10.65;;
68614;SDS011;55593;51.994;5.882;2022-12-18T11:04:23;19.58;;;10.73;;
68614;SDS011;55593;51.994;5.882;2022-12-18T11:06:56;19.73;;;11.13;;
68614;SDS011;55593;51.994;5.882;2022-12-18T11:09:30;23.05;;;12.20;;
68614;SDS011;55593;51.994;5.882;2022-12-18T11:12:01;17.63;;;11.05;;
68614;SDS011;55593;51.994;5.882;2022-12-18T11:14:41;19.75;;;12.38;;
68614;SDS011;55593;51.994;5.882;2022-12-18T11:17:17;22.63;;;10.30;;
68614;SDS011;55593;51.994;5.882;2022-12-18T11:19:51;20.45;;;11.25;;
68614;SDS011;55593;51.994;5.882;2022-12-18T11:22:22;20.23;;;11.10;;
68614;SDS011;55593;51.994;5.882;2022-12-18T11:24:54;21.30;;;12.10;;
68614;SDS011;55593;51.994;5.882;2022-12-18T11:27:25;18.48;;;11.57;;
68614;SDS011;55593;51.994;5.882;2022-12-18T11:30:09;22.08;;;12.43;;
68614;SDS011;55593;51.994;5.882;2022-12-18T11:32:38;20.20;;;11.10;;
68614;SDS011;55593;51.994;5.882;2022-12-18T11:35:11;21.92;;;11.85;;
68614;SDS011;55593;51.994;5.882;2022-12-18T11:37:46;21.52;;;11.65;;
68614;SDS011;55593;51.994;5.882;2022-12-18T11:40:17;15.80;;;9.68;;
68614;SDS011;55593;51.994;5.882;2022-12-18T11:42:49;20.45;;;12.18;;
68614;SDS011;55593;51.994;5.882;2022-12-18T11:45:28;22.05;;;11.20;;
68614;SDS011;55593;51.994;5.882;2022-12-18T11:47:58;17.45;;;10.45;;
68614;SDS011;55593;51.994;5.882;2022-12-18T11:50:32;20.42;;;11.95;;
68614;SDS011;55593;51.994;5.882;2022-12-18T11:53:09;21.10;;;12.07;;
68614;SDS011;55593;51.994;5.882;2022-12-18T11:55:41;24.88;;;12.57;;
68614;SDS011;55593;51.994;5.882;2022-12-18T11:58:17;20.47;;;11.83;;
68614;SDS011;55593;51.994;5.882;2022-12-18T12:00:56;21.23;;;11.15;;
68614;SDS011;55593;51.994;5.882;2022-12-18T12:03:39;21.90;;;12.40;;
68614;SDS011;55593;51.994;5.882;2022-12-18T12:06:19;22.45;;;12.38;;
68614;SDS011;55593;51.994;5.882;2022-12-18T12:09:01;22.02;;;11.60;;
68614;SDS011;55593;51.994;5.882;2022-12-18T12:11:37;22.33;;;12.50;;
68614;SDS011;55593;51.994;5.882;2022-12-18T12:14:16;20.98;;;13.07;;
68614;SDS011;55593;51.994;5.882;2022-12-18T12:16:54;20.70;;;11.38;;
68614;SDS011;55593;51.994;5.882;2022-12-18T12:22:02;25.63;;;13.15;;
68614;SDS011;55593;51.994;5.882;2022-12-18T12:24:37;21.02;;;11.55;;
68614;SDS011;55593;51.994;5.882;2022-12-18T12:27:15;23.10;;;11.60;;
68614;SDS011;55593;51.994;5.882;2022-12-18T12:29:50;23.85;;;11.52;;
68614;SDS011;55593;51.994;5.882;2022-12-18T12:32:33;20.23;;;12.38;;
68614;SDS011;55593;51.994;5.882;2022-12-18T12:35:13;20.08;;;11.70;;
68614;SDS011;55593;51.994;5.882;2022-12-18T12:37:50;18.73;;;11.05;;
68614;SDS011;55593;51.994;5.882;2022-12-18T12:40:28;22.05;;;11.07;;
68614;SDS011;55593;51.994;5.882;2022-12-18T12:43:00;22.48;;;11.30;;
68614;SDS011;55593;51.994;5.882;2022-12-18T12:45:42;24.13;;;11.35;;
68614;SDS011;55593;51.994;5.882;2022-12-18T12:48:19;19.75;;;11.20;;
68614;SDS011;55593;51.994;5.882;2022-12-18T12:50:51;20.48;;;11.38;;
68614;SDS011;55593;51.994;5.882;2022-12-18T12:53:23;21.85;;;12.60;;
68614;SDS011;55593;51.994;5.882;2022-12-18T12:55:55;20.13;;;11.43;;
68614;SDS011;55593;51.994;5.882;2022-12-18T12:58:26;20.75;;;11.05;;
68614;SDS011;55593;51.994;5.882;2022-12-18T13:01:01;17.47;;;9.57;;
68614;SDS011;55593;51.994;5.882;2022-12-18T13:03:44;18.15;;;10.45;;
68614;SDS011;55593;51.994;5.882;2022-12-18T13:06:18;21.48;;;12.48;;
68614;SDS011;55593;51.994;5.882;2022-12-18T13:08:55;21.20;;;13.32;;
68614;SDS011;55593;51.994;5.882;2022-12-18T13:11:30;20.95;;;11.60;;
68614;SDS011;55593;51.994;5.882;2022-12-18T13:14:19;23.25;;;13.68;;
68614;SDS011;55593;51.994;5.882;2022-12-18T13:19:47;22.80;;;13.13;;
68614;SDS011;55593;51.994;5.882;2022-12-18T13:22:21;22.85;;;13.23;;
68614;SDS011;55593;51.994;5.882;2022-12-18T13:24:51;22.92;;;12.95;;
68614;SDS011;55593;51.994;5.882;2022-12-18T13:36:12;23.10;;;14.05;;
68614;SDS011;55593;51.994;5.882;2022-12-18T13:41:39;23.20;;;13.52;;
68614;SDS011;55593;51.994;5.882;2022-12-18T13:44:13;21.70;;;13.02;;
68614;SDS011;55593;51.994;5.882;2022-12-18T13:46:49;19.20;;;12.15;;
68614;SDS011;55593;51.994;5.882;2022-12-18T13:49:21;21.23;;;12.30;;
68614;SDS011;55593;51.994;5.882;2022-12-18T13:51:55;22.55;;;13.25;;
68614;SDS011;55593;51.994;5.882;2022-12-18T13:54:25;19.85;;;12.23;;
68614;SDS011;55593;51.994;5.882;2022-12-18T13:56:59;22.90;;;13.02;;
68614;SDS011;55593;51.994;5.882;2022-12-18T13:59:33;25.17;;;12.40;;
68614;SDS011;55593;51.994;5.882;2022-12-18T14:02:07;17.50;;;11.60;;
68614;SDS011;55593;51.994;5.882;2022-12-18T14:04:44;24.15;;;12.93;;
68614;SDS011;55593;51.994;5.882;2022-12-18T14:07:17;22.65;;;12.70;;
68614;SDS011;55593;51.994;5.882;2022-12-18T14:09:48;24.42;;;13.70;;
68614;SDS011;55593;51.994;5.882;2022-12-18T14:12:19;19.85;;;12.95;;
68614;SDS011;55593;51.994;5.882;2022-12-18T14:15:02;22.80;;;13.32;;
68614;SDS011;55593;51.994;5.882;2022-12-18T14:17:34;25.77;;;12.95;;
68614;SDS011;55593;51.994;5.882;2022-12-18T14:20:12;23.30;;;13.23;;
68614;SDS011;55593;51.994;5.882;2022-12-18T14:22:45;22.63;;;12.90;;
68614;SDS011;55593;51.994;5.882;2022-12-18T14:25:16;21.48;;;13.43;;
68614;SDS011;55593;51.994;5.882;2022-12-18T14:27:47;25.95;;;13.13;;
68614;SDS011;55593;51.994;5.882;2022-12-18T14:30:23;25.95;;;12.05;;
68614;SDS011;55593;51.994;5.882;2022-12-18T14:32:59;24.42;;;13.13;;
68614;SDS011;55593;51.994;5.882;2022-12-18T14:35:29;25.60;;;13.60;;
68614;SDS011;55593;51.994;5.882;2022-12-18T14:38:19;21.70;;;12.48;;
68614;SDS011;55593;51.994;5.882;2022-12-18T14:40:57;21.70;;;13.13;;
68614;SDS011;55593;51.994;5.882;2022-12-18T14:45:56;24.23;;;13.93;;
68614;SDS011;55593;51.994;5.882;2022-12-18T14:48:32;21.17;;;12.20;;
68614;SDS011;55593;51.994;5.882;2022-12-18T14:51:05;24.27;;;12.80;;
68614;SDS011;55593;51.994;5.882;2022-12-18T14:53:39;23.30;;;13.10;;
68614;SDS011;55593;51.994;5.882;2022-12-18T14:56:13;22.52;;;12.85;;
68614;SDS011;55593;51.994;5.882;2022-12-18T14:58:44;21.58;;;12.82;;
68614;SDS011;55593;51.994;5.882;2022-12-18T15:04:03;36.97;;;13.77;;
68614;SDS011;55593;51.994;5.882;2022-12-18T15:06:33;27.52;;;14.73;;
68614;SDS011;55593;51.994;5.882;2022-12-18T15:09:22;22.98;;;14.38;;
68614;SDS011;55593;51.994;5.882;2022-12-18T15:11:55;25.48;;;12.52;;
68614;SDS011;55593;51.994;5.882;2022-12-18T15:14:32;43.08;;;15.52;;
68614;SDS011;55593;51.994;5.882;2022-12-18T15:17:03;24.48;;;13.65;;
68614;SDS011;55593;51.994;5.882;2022-12-18T15:19:36;23.58;;;13.80;;
68614;SDS011;55593;51.994;5.882;2022-12-18T15:22:20;25.20;;;14.82;;